Time;durP1;ratioP1;P1;durP2;ratioP2;P2;SDS_P1;SDS_P2;PMS_P1;PMS_P2;Temp;Humidity;BMP_temperature;BMP_pressure;BME280_temperature;BME280_humidity;BME280_pressure;Samples;Min_cycle;Max_cycle;Signal;HPM_P1;HPM_P2
2023/06/12 00:01:10;;;;;;;;;;;14.70;94.70;;;;;;5053886;28;20497;-64
2023/06/12 00:03:36;;;;;;;8.95;5.15;;;14.60;94.80;;;;;;5057161;28;19920;-63
2023/06/12 00:06:02;;;;;;;13.98;5.75;;;14.60;95.00;;;;;;5054334;28;20603;-63
2023/06/12 00:08:33;;;;;;;;;;;14.60;95.00;;;;;;5052974;28;20045;-63
2023/06/12 00:10:59;;;;;;;7.28;5.28;;;14.60;95.20;;;;;;5051493;28;19935;-63
2023/06/12 00:13:25;;;;;;;;;;;14.60;95.20;;;;;;5054562;28;20424;-62
2023/06/12 00:15:50;;;;;;;7.20;4.90;;;14.60;95.20;;;;;;5050346;28;19921;-62
2023/06/12 00:18:17;;;;;;;;;;;14.60;95.40;;;;;;5044708;28;20086;-63
2023/06/12 00:20:43;;;;;;;9.10;4.90;;;14.60;95.30;;;;;;5038291;28;19923;-64
2023/06/12 00:23:11;;;;;;;;;;;14.60;95.40;;;;;;5042549;28;20106;-64
2023/06/12 00:25:39;;;;;;;6.68;4.82;;;14.40;95.60;;;;;;5042721;28;19970;-63
2023/06/12 00:28:05;;;;;;;9.88;5.28;;;14.40;95.70;;;;;;5042697;28;20091;-63
2023/06/12 00:30:30;;;;;;;;;;;14.40;95.90;;;;;;5053765;28;20056;-63
2023/06/12 00:32:56;;;;;;;9.05;5.70;;;14.30;95.90;;;;;;5038144;28;19917;-65
2023/06/12 00:35:22;;;;;;;;;;;14.20;96.20;;;;;;5044585;28;20504;-63
2023/06/12 00:37:49;;;;;;;13.85;5.50;;;14.30;96.50;;;;;;5039919;28;19921;-63
2023/06/12 00:40:15;;;;;;;8.45;5.53;;;14.30;96.70;;;;;;5040782;28;20037;-62
2023/06/12 00:42:45;;;;;;;9.82;5.80;;;14.30;96.60;;;;;;5039822;28;20045;-62
2023/06/12 00:45:13;;;;;;;7.75;5.57;;;14.40;96.30;;;;;;5034721;28;20548;-62
2023/06/12 00:47:38;;;;;;;9.80;5.20;;;14.30;96.60;;;;;;5038809;28;20415;-63
2023/06/12 00:50:04;;;;;;;;;;;14.30;96.80;;;;;;5040902;28;20037;-64
2023/06/12 00:52:34;;;;;;;7.47;5.07;;;14.30;96.80;;;;;;5038686;28;19980;-63
2023/06/12 00:55:01;;;;;;;7.68;5.20;;;14.30;96.80;;;;;;5041738;28;20041;-62
2023/06/12 00:57:27;;;;;;;8.57;5.60;;;14.30;96.70;;;;;;5042579;28;20044;-62
2023/06/12 00:59:53;;;;;;;;;;;14.30;96.70;;;;;;5042156;28;20067;-62
2023/06/12 01:02:18;;;;;;;12.48;6.00;;;14.20;97.20;;;;;;5037457;28;20406;-63
2023/06/12 01:04:46;;;;;;;;;;;14.30;97.00;;;;;;5041163;28;20037;-61
2023/06/12 01:07:29;;;;;;;7.63;5.63;;;14.20;97.10;;;;;;5034690;28;19952;-63
2023/06/12 01:10:33;;;;;;;7.80;5.50;;;14.10;97.30;;;;;;5043504;28;20044;-63
2023/06/12 01:12:59;;;;;;;8.25;6.05;;;14.20;97.10;;;;;;5040171;28;20052;-63
2023/06/12 01:15:25;;;;;;;7.55;5.18;;;14.00;97.30;;;;;;5037589;28;20045;-63
2023/06/12 01:17:51;;;;;;;;;;;14.10;97.30;;;;;;5042341;28;20040;-63
2023/06/12 01:20:17;;;;;;;17.00;5.80;;;14.20;97.30;;;;;;5039636;28;19917;-63
2023/06/12 01:22:56;;;;;;;9.00;5.97;;;14.10;97.50;;;;;;5040833;28;20076;-63
2023/06/12 01:25:36;;;;;;;8.52;5.47;;;14.10;97.90;;;;;;5036815;28;20048;-64
2023/06/12 01:28:01;;;;;;;10.13;6.32;;;14.00;97.70;;;;;;5044787;28;20071;-62
2023/06/12 01:30:49;;;;;;;;;;;14.00;98.10;;;;;;5037863;28;20747;-64
2023/06/12 01:33:19;;;;;;;8.43;5.77;;;14.10;98.00;;;;;;5041194;28;19916;-62
2023/06/12 01:35:49;;;;;;;7.60;5.20;;;14.00;97.70;;;;;;5041296;28;20187;-62
2023/06/12 01:38:23;;;;;;;7.43;5.50;;;13.90;98.20;;;;;;5042666;28;20048;-62
2023/06/12 01:40:50;;;;;;;7.78;5.53;;;14.00;98.50;;;;;;5029768;28;20056;-63
2023/06/12 01:43:16;;;;;;;8.38;5.38;;;13.90;98.30;;;;;;5043209;28;20041;-62
2023/06/12 01:45:41;;;;;;;;;;;13.90;98.30;;;;;;5036959;28;20045;-63
2023/06/12 01:48:07;;;;;;;7.53;5.32;;;14.00;98.40;;;;;;5043070;28;20296;-64
2023/06/12 01:50:33;;;;;;;;;;;13.90;98.80;;;;;;5038432;28;20037;-65
2023/06/12 01:52:59;;;;;;;7.97;5.95;;;13.90;98.40;;;;;;5037332;28;19948;-63
2023/06/12 01:55:24;;;;;;;;;;;13.80;98.80;;;;;;5041785;28;20428;-64
2023/06/12 01:57:50;;;;;;;13.02;6.45;;;13.80;99.10;;;;;;5040912;28;19917;-63
2023/06/12 02:00:17;;;;;;;11.32;5.82;;;13.80;99.00;;;;;;5039264;28;20034;-63
2023/06/12 02:02:44;;;;;;;13.02;5.78;;;13.80;98.80;;;;;;5037916;28;20033;-63
2023/06/12 02:05:10;;;;;;;8.55;5.32;;;13.90;99.20;;;;;;5042416;28;20075;-65
2023/06/12 02:07:36;;;;;;;8.60;6.03;;;13.90;98.90;;;;;;5038191;28;20041;-63
2023/06/12 02:10:02;;;;;;;;;;;13.90;99.20;;;;;;5040505;28;20420;-61
2023/06/12 02:12:29;;;;;;;8.18;5.88;;;13.80;99.20;;;;;;5036108;28;20328;-63
2023/06/12 02:14:57;;;;;;;9.27;5.43;;;13.80;99.10;;;;;;5039680;28;20045;-65
2023/06/12 02:17:23;;;;;;;10.30;6.38;;;13.80;99.20;;;;;;5035211;28;20508;-63
2023/06/12 02:19:48;;;;;;;;;;;13.80;99.20;;;;;;5040349;28;20551;-63
2023/06/12 02:22:14;;;;;;;9.43;5.47;;;13.80;99.80;;;;;;5032934;28;19924;-61
2023/06/12 02:24:40;;;;;;;;;;;13.80;99.60;;;;;;5039782;28;20449;-63
2023/06/12 02:27:06;;;;;;;9.40;5.55;;;13.80;99.50;;;;;;5056104;28;19928;-62
2023/06/12 02:29:32;;;;;;;;;;;13.80;99.80;;;;;;5040277;28;20044;-64
2023/06/12 02:31:57;;;;;;;7.40;5.32;;;13.80;99.90;;;;;;5033103;28;19924;-63
2023/06/12 02:34:23;;;;;;;;;;;13.90;99.90;;;;;;5036559;28;20037;-64
2023/06/12 02:36:49;;;;;;;8.50;6.13;;;13.90;99.90;;;;;;5040302;28;19928;-63
2023/06/12 02:39:16;;;;;;;7.60;5.50;;;13.90;99.90;;;;;;5039694;28;20127;-61
2023/06/12 02:41:46;;;;;;;9.52;6.40;;;13.90;99.90;;;;;;5034031;28;20045;-63
2023/06/12 02:44:12;;;;;;;9.25;5.97;;;13.90;99.90;;;;;;5038428;28;20060;-62
2023/06/12 02:46:53;;;;;;;;;;;13.80;99.90;;;;;;5032754;28;20060;-61
2023/06/12 02:49:20;;;;;;;6.85;5.57;;;13.80;99.90;;;;;;5038604;28;19924;-62
2023/06/12 02:51:46;;;;;;;9.15;6.10;;;13.80;99.90;;;;;;5032689;28;20067;-62
2023/06/12 02:54:12;;;;;;;;;;;13.80;99.90;;;;;;5042078;28;20353;-62
2023/06/12 02:56:37;;;;;;;9.20;5.85;;;13.80;99.90;;;;;;5039361;28;19921;-64
2023/06/12 02:59:03;;;;;;;;;;;13.80;99.90;;;;;;5042887;28;20043;-63
2023/06/12 03:01:29;;;;;;;8.82;6.13;;;13.70;99.90;;;;;;5032401;28;19928;-63
2023/06/12 03:03:56;;;;;;;7.53;5.78;;;13.70;99.90;;;;;;5037459;28;20119;-63
2023/06/12 03:06:26;;;;;;;8.98;5.80;;;13.70;99.90;;;;;;5033776;28;20049;-63
2023/06/12 03:08:52;;;;;;;9.80;6.07;;;13.70;99.90;;;;;;5039949;28;20049;-62
2023/06/12 03:11:19;;;;;;;12.80;6.60;;;13.70;99.90;;;;;;5033126;28;20037;-63
2023/06/12 03:13:45;;;;;;;11.25;6.15;;;13.70;99.90;;;;;;5037600;28;20045;-63
2023/06/12 03:16:10;;;;;;;;;;;13.70;99.90;;;;;;5034509;28;20033;-62
2023/06/12 03:18:36;;;;;;;10.77;5.80;;;13.70;99.90;;;;;;5037899;28;19921;-63
2023/06/12 03:21:01;;;;;;;;;;;13.60;99.90;;;;;;5035649;28;20025;-62
2023/06/12 03:23:27;;;;;;;11.52;6.55;;;13.60;99.90;;;;;;5039734;28;19921;-62
2023/06/12 03:25:53;;;;;;;;;;;13.70;99.90;;;;;;5040445;28;20501;-62
2023/06/12 03:28:18;;;;;;;8.00;5.75;;;13.70;99.90;;;;;;5039327;28;19920;-62
2023/06/12 03:30:44;;;;;;;;;;;13.70;99.90;;;;;;5036169;28;20504;-62
2023/06/12 03:33:11;;;;;;;11.02;5.78;;;13.60;99.90;;;;;;5038936;28;19944;-63
2023/06/12 03:35:37;;;;;;;10.32;5.97;;;13.60;99.90;;;;;;5043950;28;20152;-63
2023/06/12 03:38:02;;;;;;;;;;;13.60;99.90;;;;;;5041504;28;20129;-64
2023/06/12 03:40:28;;;;;;;11.60;6.70;;;13.80;99.90;;;;;;5042313;28;19920;-63
2023/06/12 03:42:53;;;;;;;;;;;14.10;99.90;;;;;;5038762;28;20060;-62
2023/06/12 03:45:19;;;;;;;7.47;5.45;;;14.10;99.90;;;;;;5035368;28;19952;-63
2023/06/12 03:47:44;;;;;;;;;;;14.00;99.90;;;;;;5036587;28;20045;-62
2023/06/12 03:50:11;;;;;;;10.98;6.25;;;14.10;99.90;;;;;;5043492;28;19972;-62
2023/06/12 03:52:36;;;;;;;9.70;5.90;;;14.10;99.90;;;;;;5030784;28;20119;-61
2023/06/12 03:55:02;;;;;;;;;;;14.20;99.90;;;;;;5039011;28;20043;-63
2023/06/12 03:57:28;;;;;;;8.75;6.03;;;14.20;99.90;;;;;;5043443;28;19978;-63
2023/06/12 03:59:53;;;;;;;;;;;14.10;99.90;;;;;;5042867;28;20802;-62
2023/06/12 04:02:19;;;;;;;11.32;6.28;;;14.20;99.90;;;;;;5036625;28;19931;-63
2023/06/12 04:04:44;;;;;;;;;;;14.30;99.90;;;;;;5042479;28;20041;-64
2023/06/12 04:07:13;;;;;;;11.43;6.05;;;14.40;99.90;;;;;;5038166;28;19968;-64
2023/06/12 04:09:38;;;;;;;12.20;6.28;;;14.40;99.90;;;;;;5042108;28;20509;-62
2023/06/12 04:12:04;;;;;;;;;;;14.50;99.90;;;;;;5044081;28;20037;-63
2023/06/12 04:14:30;;;;;;;14.82;6.28;;;14.50;99.90;;;;;;5043100;28;19927;-63
2023/06/12 04:16:57;;;;;;;;;;;14.60;99.90;;;;;;5036837;28;20117;-62
2023/06/12 04:19:23;;;;;;;8.65;6.15;;;14.60;99.90;;;;;;5043548;28;20385;-63
2023/06/12 04:21:49;;;;;;;;;;;14.80;99.90;;;;;;5042453;28;20045;-62
2023/06/12 04:24:19;;;;;;;8.70;6.20;;;14.80;99.90;;;;;;5039718;28;19963;-63
2023/06/12 04:26:46;;;;;;;8.50;6.10;;;14.90;99.90;;;;;;5040955;28;20087;-62
2023/06/12 04:29:12;;;;;;;10.32;5.68;;;15.00;99.90;;;;;;5041039;28;20130;-62
2023/06/12 04:31:38;;;;;;;;;;;15.10;99.90;;;;;;5044153;28;20056;-62
2023/06/12 04:34:06;;;;;;;9.77;6.57;;;15.90;99.20;;;;;;5041186;28;20346;-63
2023/06/12 04:36:37;;;;;;;12.38;6.30;;;16.60;97.80;;;;;;5040469;28;20052;-62
2023/06/12 04:39:04;;;;;;;10.77;5.43;;;16.60;98.10;;;;;;5038328;28;20520;-62
2023/06/12 04:41:32;;;;;;;10.73;6.05;;;16.40;98.20;;;;;;5041692;28;20596;-61
2023/06/12 04:43:58;;;;;;;12.70;5.75;;;16.30;98.40;;;;;;5041876;28;20045;-61
2023/06/12 04:46:25;;;;;;;;;;;16.20;98.30;;;;;;5040103;28;20036;-62
2023/06/12 04:48:51;;;;;;;8.88;5.43;;;16.10;99.00;;;;;;5040312;28;19960;-62
2023/06/12 04:51:17;;;;;;;8.35;5.72;;;16.20;99.60;;;;;;5043106;28;20052;-63
2023/06/12 04:53:43;;;;;;;;;;;16.20;99.60;;;;;;5037933;28;20040;-62
2023/06/12 04:56:10;;;;;;;7.65;5.53;;;16.50;99.00;;;;;;5041075;28;19923;-62
2023/06/12 04:58:41;;;;;;;10.30;6.13;;;16.80;99.30;;;;;;5039599;28;20754;-62
2023/06/12 05:01:07;;;;;;;9.52;5.82;;;16.80;99.50;;;;;;5037368;28;20044;-63
2023/06/12 05:03:33;;;;;;;;;;;16.80;99.80;;;;;;5049396;28;20052;-63
2023/06/12 05:06:01;;;;;;;9.73;5.65;;;16.80;99.90;;;;;;5034482;28;19925;-63
2023/06/12 05:08:27;;;;;;;7.32;5.45;;;16.90;98.90;;;;;;5048232;28;20136;-62
2023/06/12 05:10:52;;;;;;;;;;;16.90;98.50;;;;;;5037224;28;20136;-63
2023/06/12 05:13:19;;;;;;;11.95;5.95;;;17.00;98.10;;;;;;5048781;28;19917;-62
2023/06/12 05:15:44;;;;;;;8.88;5.43;;;17.10;99.10;;;;;;5029860;28;20571;-62
2023/06/12 05:18:10;;;;;;;;;;;17.30;99.90;;;;;;5046452;28;20030;-63
2023/06/12 05:20:36;;;;;;;21.02;6.22;;;17.30;99.20;;;;;;5037660;28;19917;-63
2023/06/12 05:23:02;;;;;;;8.57;5.43;;;17.40;98.30;;;;;;5040590;28;20037;-63
2023/06/12 05:25:28;;;;;;;;;;;17.60;98.20;;;;;;5038740;28;20790;-63
2023/06/12 05:27:53;;;;;;;9.80;6.18;;;17.80;97.90;;;;;;5047537;28;19925;-63
2023/06/12 05:30:19;;;;;;;11.95;5.75;;;17.90;97.60;;;;;;5046134;28;20419;-62
2023/06/12 05:32:45;;;;;;;;;;;18.10;95.10;;;;;;5047565;28;20554;-63
2023/06/12 05:35:11;;;;;;;11.63;5.55;;;18.20;94.60;;;;;;5043916;28;19917;-63
2023/06/12 05:37:36;;;;;;;;;;;18.30;94.50;;;;;;5052272;28;20098;-63
2023/06/12 05:40:05;;;;;;;9.23;5.43;;;18.40;93.20;;;;;;5041284;28;19927;-63
2023/06/12 05:42:31;;;;;;;9.80;5.50;;;18.60;93.90;;;;;;5041356;28;20514;-63
2023/06/12 05:44:57;;;;;;;;;;;19.20;92.70;;;;;;5040118;28;20117;-62
2023/06/12 05:47:23;;;;;;;8.05;5.55;;;19.60;91.70;;;;;;5042205;28;20170;-64
2023/06/12 05:49:49;;;;;;;7.25;5.18;;;19.60;91.80;;;;;;5040853;28;20045;-63
2023/06/12 05:52:15;;;;;;;10.32;5.95;;;19.50;91.80;;;;;;5034482;28;20166;-63
2023/06/12 05:54:41;;;;;;;7.35;5.65;;;19.50;91.80;;;;;;5036639;28;20025;-63
2023/06/12 05:57:06;;;;;;;;;;;19.40;91.40;;;;;;5039487;28;20037;-63
2023/06/12 05:59:32;;;;;;;12.80;5.93;;;19.50;91.30;;;;;;5042116;28;19999;-64
2023/06/12 06:01:58;;;;;;;8.65;5.57;;;19.70;91.10;;;;;;5038215;28;20048;-64
2023/06/12 06:04:23;;;;;;;;;;;19.80;91.10;;;;;;5045066;28;20106;-64
2023/06/12 06:06:52;;;;;;;8.13;5.35;;;19.80;90.60;;;;;;5034575;28;19947;-63
2023/06/12 06:09:18;;;;;;;6.85;4.97;;;19.70;91.00;;;;;;5046128;28;20386;-64
2023/06/12 06:11:43;;;;;;;;;;;19.80;90.80;;;;;;5036287;28;20037;-63
2023/06/12 06:14:09;;;;;;;8.02;5.35;;;20.00;90.60;;;;;;5042632;28;19963;-63
2023/06/12 06:16:34;;;;;;;9.38;5.40;;;20.20;90.30;;;;;;5030893;28;20549;-63
2023/06/12 06:19:00;;;;;;;6.95;5.43;;;21.20;88.70;;;;;;5039653;28;20040;-63
2023/06/12 06:21:26;;;;;;;8.13;5.68;;;21.60;84.40;;;;;;5030605;28;20048;-62
2023/06/12 06:23:52;;;;;;;9.18;5.03;;;21.50;86.60;;;;;;5042678;28;20044;-63
2023/06/12 06:26:17;;;;;;;10.88;6.65;;;21.40;85.70;;;;;;5035886;28;20478;-61
2023/06/12 06:28:43;;;;;;;7.72;5.95;;;21.40;85.50;;;;;;5045086;28;20052;-62
2023/06/12 06:31:08;;;;;;;9.80;5.53;;;21.30;84.60;;;;;;5036274;28;20037;-62
2023/06/12 06:33:35;;;;;;;6.63;5.20;;;21.40;84.90;;;;;;5049809;28;20041;-61
2023/06/12 06:36:01;;;;;;;9.52;5.22;;;22.40;81.10;;;;;;5053352;28;20568;-62
2023/06/12 06:38:27;;;;;;;10.30;5.53;;;22.60;80.30;;;;;;5045568;28;20049;-63
2023/06/12 06:40:52;;;;;;;9.05;5.38;;;22.50;80.60;;;;;;5033327;28;20045;-64
2023/06/12 06:43:19;;;;;;;9.85;5.30;;;22.80;80.20;;;;;;5046015;28;20555;-63
2023/06/12 06:45:44;;;;;;;6.82;5.40;;;22.80;78.50;;;;;;5044024;28;20071;-63
2023/06/12 06:48:12;;;;;;;6.85;5.35;;;22.70;79.10;;;;;;5041500;28;20554;-63
2023/06/12 06:50:38;;;;;;;6.72;4.90;;;22.70;80.10;;;;;;5040652;28;20037;-63
2023/06/12 06:53:04;;;;;;;8.50;4.72;;;23.20;78.60;;;;;;5044318;28;20571;-63
2023/06/12 06:55:29;;;;;;;6.10;4.93;;;23.70;74.50;;;;;;5045812;28;20247;-62
2023/06/12 06:57:55;;;;;;;7.35;4.68;;;23.90;75.40;;;;;;5046849;28;20032;-61
2023/06/12 07:00:22;;;;;;;6.15;4.80;;;24.10;74.20;;;;;;5037401;28;20045;-63
2023/06/12 07:02:50;;;;;;;7.95;5.13;;;23.90;73.80;;;;;;5044366;28;20458;-63
2023/06/12 07:05:16;;;;;;;7.75;5.38;;;23.60;74.30;;;;;;5040757;28;20060;-63
2023/06/12 07:07:44;;;;;;;11.82;4.90;;;23.40;76.10;;;;;;5042300;28;20659;-62
2023/06/12 07:10:10;;;;;;;5.55;4.30;;;23.30;76.20;;;;;;5037593;28;20040;-62
2023/06/12 07:12:36;;;;;;;9.07;4.90;;;23.30;74.60;;;;;;5043647;28;20044;-63
2023/06/12 07:15:03;;;;;;;7.57;4.78;;;23.40;75.00;;;;;;5029573;28;20041;-64
2023/06/12 07:17:29;;;;;;;6.57;4.40;;;23.50;72.90;;;;;;5045432;28;20055;-62
2023/06/12 07:19:54;;;;;;;9.18;4.53;;;23.70;73.80;;;;;;5040743;28;20052;-62
2023/06/12 07:22:20;;;;;;;6.63;4.35;;;24.30;74.10;;;;;;5043132;28;20749;-63
2023/06/12 07:24:46;;;;;;;6.53;4.22;;;25.20;70.90;;;;;;5040298;28;20431;-63
2023/06/12 07:27:11;;;;;;;5.47;4.50;;;25.70;69.40;;;;;;5040151;28;20036;-62
2023/06/12 07:29:37;;;;;;;6.85;4.90;;;26.00;66.30;;;;;;5042665;28;20048;-62
2023/06/12 07:32:03;;;;;;;7.47;4.40;;;26.30;67.30;;;;;;5035788;28;20192;-63
2023/06/12 07:34:29;;;;;;;4.88;4.00;;;26.40;65.70;;;;;;5043568;28;20121;-63
2023/06/12 07:36:54;;;;;;;5.25;4.32;;;25.90;66.70;;;;;;5038795;28;20492;-63
2023/06/12 07:39:20;;;;;;;8.52;4.95;;;25.60;69.80;;;;;;5047634;28;20029;-62
2023/06/12 07:41:46;;;;;;;9.68;4.40;;;25.40;68.40;;;;;;5042210;28;20032;-63
2023/06/12 07:44:12;;;;;;;4.97;4.15;;;25.10;70.50;;;;;;5047849;28;20037;-63
2023/06/12 07:46:40;;;;;;;8.00;4.80;;;25.00;68.20;;;;;;5036521;28;20515;-64
2023/06/12 07:49:06;;;;;;;12.73;4.43;;;25.00;67.60;;;;;;5048252;28;20045;-64
2023/06/12 07:51:31;;;;;;;6.03;4.55;;;25.00;69.30;;;;;;5048352;28;20044;-64
2023/06/12 07:53:57;;;;;;;6.82;5.03;;;25.60;67.90;;;;;;5055013;28;20037;-64
2023/06/12 07:56:22;;;;;;;5.32;4.30;;;25.90;66.90;;;;;;5038587;28;20045;-64
2023/06/12 07:58:48;;;;;;;9.40;4.88;;;25.80;66.50;;;;;;5043437;28;20035;-64
2023/06/12 08:01:14;;;;;;;5.65;4.30;;;25.10;67.10;;;;;;5025773;28;20045;-63
2023/06/12 08:03:39;;;;;;;5.68;4.05;;;24.80;69.40;;;;;;5051230;28;20080;-63
2023/06/12 08:06:08;;;;;;;6.63;4.20;;;24.80;69.80;;;;;;5052836;28;20032;-63
2023/06/12 08:08:45;;;;;;;7.85;5.03;;;24.70;68.50;;;;;;5051066;28;20055;-64
2023/06/12 08:11:11;;;;;;;7.80;5.03;;;26.00;64.40;;;;;;5037485;28;20469;-63
2023/06/12 08:13:37;;;;;;;35.67;5.20;;;26.80;59.90;;;;;;5043918;28;20037;-64
2023/06/12 08:16:04;;;;;;;10.38;5.13;;;26.80;63.80;;;;;;5042307;28;20034;-62
2023/06/12 08:18:29;;;;;;;9.57;4.95;;;26.50;61.60;;;;;;5051686;28;20040;-63
2023/06/12 08:20:57;;;;;;;12.30;5.38;;;25.90;62.70;;;;;;5041921;28;20032;-63
2023/06/12 08:23:23;;;;;;;8.00;5.30;;;25.70;59.40;;;;;;5044998;28;20068;-63
2023/06/12 08:25:49;;;;;;;8.93;5.40;;;25.50;62.90;;;;;;5039784;28;20072;-63
2023/06/12 08:28:15;;;;;;;9.80;5.10;;;25.50;64.00;;;;;;5050018;28;20480;-63
2023/06/12 08:30:40;;;;;;;7.78;5.57;;;25.50;61.30;;;;;;5030950;28;20041;-62
2023/06/12 08:33:07;;;;;;;8.93;5.80;;;25.30;61.00;;;;;;5044173;28;20033;-62
2023/06/12 08:35:34;;;;;;;7.07;6.00;;;25.20;63.10;;;;;;5033784;28;20041;-63
2023/06/12 08:38:01;;;;;;;9.85;6.07;;;25.40;62.70;;;;;;5039061;28;20052;-64
2023/06/12 08:40:26;;;;;;;6.20;5.07;;;25.40;60.10;;;;;;5038481;28;20416;-61
2023/06/12 08:42:52;;;;;;;8.80;5.30;;;25.80;60.80;;;;;;5048334;28;20036;-63
2023/06/12 08:45:25;;;;;;;6.43;4.93;;;26.90;60.90;;;;;;5036195;28;20543;-64
2023/06/12 08:47:52;;;;;;;7.00;5.20;;;28.20;56.20;;;;;;5039672;28;20051;-63
2023/06/12 08:50:19;;;;;;;12.98;6.00;;;29.20;53.90;;;;;;5036280;28;20046;-61
2023/06/12 08:52:46;;;;;;;7.18;5.47;;;29.30;52.80;;;;;;5041687;28;20081;-61
2023/06/12 08:55:14;;;;;;;7.82;6.07;;;28.80;54.30;;;;;;5036777;28;20120;-62
2023/06/12 08:57:41;;;;;;;14.13;6.35;;;27.90;54.00;;;;;;5047094;28;20055;-62
2023/06/12 09:00:12;;;;;;;6.05;5.28;;;26.90;55.60;;;;;;5035127;28;20045;-61
2023/06/12 09:02:51;;;;;;;11.02;5.80;;;26.10;57.80;;;;;;5040635;28;20109;-62
2023/06/12 09:05:21;;;;;;;10.85;6.22;;;25.50;59.60;;;;;;5041389;28;20040;-62
2023/06/12 09:07:47;;;;;;;21.60;6.28;;;25.00;58.20;;;;;;5046870;28;20055;-62
2023/06/12 09:10:14;;;;;;;11.60;5.90;;;24.90;60.30;;;;;;5045186;28;20048;-62
2023/06/12 09:12:43;;;;;;;7.13;5.63;;;25.10;60.10;;;;;;5050261;28;20083;-64
2023/06/12 09:15:10;;;;;;;9.13;6.40;;;24.90;58.80;;;;;;5038548;28;20039;-63
2023/06/12 09:17:37;;;;;;;10.77;6.03;;;24.40;60.40;;;;;;5045352;28;20037;-64
2023/06/12 09:20:04;;;;;;;7.40;5.72;;;24.50;62.60;;;;;;5040175;28;20041;-63
2023/06/12 09:22:30;;;;;;;9.30;5.55;;;24.70;62.20;;;;;;5051206;28;20123;-63
2023/06/12 09:24:57;;;;;;;10.35;6.00;;;24.90;61.40;;;;;;5047370;28;20075;-62
2023/06/12 09:27:23;;;;;;;10.98;6.05;;;24.60;60.90;;;;;;5048143;28;20056;-63
2023/06/12 09:29:48;;;;;;;24.45;7.72;;;24.30;64.00;;;;;;5048607;28;20347;-64
2023/06/12 09:32:15;;;;;;;18.85;7.03;;;24.00;63.40;;;;;;5051429;28;20032;-63
2023/06/12 09:34:49;;;;;;;19.88;7.60;;;24.00;63.30;;;;;;5044159;28;20578;-64
2023/06/12 09:37:16;;;;;;;14.43;6.43;;;23.90;63.60;;;;;;5039910;28;20057;-61
2023/06/12 09:39:45;;;;;;;14.75;6.47;;;24.00;63.30;;;;;;5048002;28;20080;-62
2023/06/12 09:42:13;;;;;;;7.53;5.22;;;24.00;64.90;;;;;;5049103;28;20028;-63
2023/06/12 09:44:39;;;;;;;11.57;6.75;;;23.80;63.50;;;;;;5041278;28;20052;-62
2023/06/12 09:47:05;;;;;;;11.38;6.18;;;23.50;64.10;;;;;;5043705;28;20046;-63
2023/06/12 09:49:33;;;;;;;10.43;6.03;;;23.20;66.70;;;;;;5041886;28;20055;-63
2023/06/12 09:52:01;;;;;;;11.68;6.03;;;23.10;67.90;;;;;;5033062;28;21035;-62
2023/06/12 09:54:29;;;;;;;7.88;5.43;;;23.50;66.70;;;;;;5042575;28;20831;-63
2023/06/12 09:56:58;;;;;;;8.13;6.30;;;23.70;65.60;;;;;;5042876;28;20147;-63
2023/06/12 09:59:27;;;;;;;11.65;5.93;;;23.50;65.10;;;;;;5043051;28;20045;-63
2023/06/12 10:01:59;;;;;;;8.40;6.85;;;23.40;65.10;;;;;;5038209;28;20052;-63
2023/06/12 10:04:34;;;;;;;14.50;6.03;;;23.30;66.10;;;;;;5041496;28;20099;-64
2023/06/12 10:07:08;;;;;;;12.07;6.20;;;23.60;68.90;;;;;;5032255;28;20045;-61
2023/06/12 10:09:35;;;;;;;11.95;6.22;;;23.10;67.50;;;;;;5047084;28;20049;-63
2023/06/12 10:12:01;;;;;;;8.65;5.70;;;22.90;70.50;;;;;;5032796;28;20045;-61
2023/06/12 10:14:28;;;;;;;11.40;5.82;;;23.00;69.50;;;;;;5040025;28;20040;-62
2023/06/12 10:16:59;;;;;;;8.48;5.40;;;23.10;67.60;;;;;;5037902;28;20048;-63
2023/06/12 10:19:25;;;;;;;16.48;6.43;;;23.20;66.20;;;;;;5040585;28;20033;-62
2023/06/12 10:21:54;;;;;;;10.05;5.40;;;23.40;66.00;;;;;;5034103;28;20040;-62
2023/06/12 10:24:22;;;;;;;10.73;6.13;;;23.60;64.60;;;;;;5042897;28;20037;-62
2023/06/12 10:26:51;;;;;;;12.00;6.10;;;23.40;65.60;;;;;;5040077;28;20114;-62
2023/06/12 10:29:31;;;;;;;8.07;6.53;;;23.20;62.80;;;;;;5046434;28;20048;-61
2023/06/12 10:32:07;;;;;;;12.80;7.18;;;23.10;62.40;;;;;;5034777;28;20129;-62
2023/06/12 10:34:34;;;;;;;;;;;22.80;59.40;;;;;;5042802;28;20083;-63
2023/06/12 10:37:28;;;;;;;9.27;6.00;;;22.80;58.90;;;;;;5034189;28;19970;-63
2023/06/12 10:40:12;;;;;;;11.52;6.10;;;22.90;61.00;;;;;;5041402;28;20065;-63
2023/06/12 10:42:47;;;;;;;7.70;5.70;;;23.00;64.70;;;;;;5042414;28;20055;-63
2023/06/12 10:45:21;;;;;;;25.97;6.33;;;23.00;63.90;;;;;;5040658;28;20482;-63
2023/06/12 10:48:13;;;;;;;17.70;6.35;;;23.10;65.30;;;;;;5040759;28;20115;-63
2023/06/12 10:50:44;;;;;;;8.35;6.35;;;23.40;65.40;;;;;;5037604;28;20060;-63
2023/06/12 10:53:23;;;;;;;8.95;5.88;;;23.00;65.80;;;;;;5045360;28;20041;-63
2023/06/12 10:55:55;;;;;;;8.57;5.88;;;23.20;67.70;;;;;;5037714;28;20568;-62
2023/06/12 10:58:21;;;;;;;7.20;5.82;;;23.40;67.10;;;;;;5038000;28;20029;-61
2023/06/12 11:00:51;;;;;;;8.90;6.35;;;23.70;64.80;;;;;;5037486;28;20044;-62
2023/06/12 11:03:22;;;;;;;8.05;5.97;;;23.70;64.80;;;;;;5040706;28;20041;-63
2023/06/12 11:05:55;;;;;;;10.15;5.30;;;23.80;64.50;;;;;;5030450;28;20076;-62
2023/06/12 11:08:22;;;;;;;10.13;6.10;;;23.70;62.80;;;;;;5039394;28;20037;-63
2023/06/12 11:10:49;;;;;;;9.30;5.90;;;23.70;66.50;;;;;;5037138;28;20539;-64
2023/06/12 11:13:14;;;;;;;8.35;5.90;;;23.80;64.20;;;;;;5039582;28;20049;-63
2023/06/12 11:15:46;;;;;;;10.10;5.70;;;24.00;68.40;;;;;;5041680;28;20413;-64
2023/06/12 11:18:12;;;;;;;8.60;6.20;;;23.70;63.60;;;;;;5040391;28;20117;-65
2023/06/12 11:20:38;;;;;;;10.35;6.30;;;23.60;64.00;;;;;;5033268;28;20060;-64
2023/06/12 11:23:05;;;;;;;9.07;5.57;;;23.40;64.70;;;;;;5039052;28;20037;-63
2023/06/12 11:25:35;;;;;;;7.55;5.05;;;23.50;66.10;;;;;;5043037;28;20521;-65
2023/06/12 11:28:02;;;;;;;8.63;5.40;;;23.60;62.70;;;;;;5037588;28;20045;-63
2023/06/12 11:30:28;;;;;;;8.55;5.57;;;23.80;62.80;;;;;;5031866;28;20051;-63
2023/06/12 11:32:54;;;;;;;11.65;5.57;;;23.80;68.30;;;;;;5041663;28;20068;-63
2023/06/12 11:35:20;;;;;;;8.43;5.70;;;23.70;63.20;;;;;;5040610;28;20123;-62
2023/06/12 11:37:46;;;;;;;12.60;5.47;;;23.50;61.70;;;;;;5040021;28;20071;-62
2023/06/12 11:40:12;;;;;;;10.75;5.18;;;23.40;63.00;;;;;;5034210;28;20041;-62
2023/06/12 11:42:43;;;;;;;11.05;5.07;;;23.40;64.10;;;;;;5036022;28;20443;-63
2023/06/12 11:45:10;;;;;;;9.80;5.03;;;23.40;62.60;;;;;;5031913;28;20057;-62
2023/06/12 11:47:38;;;;;;;8.98;5.03;;;23.30;65.20;;;;;;5038546;28;20030;-62
2023/06/12 11:50:06;;;;;;;9.80;5.32;;;23.50;62.50;;;;;;5036282;28;20179;-64
2023/06/12 11:52:33;;;;;;;9.68;5.55;;;23.20;63.00;;;;;;5037613;28;20037;-61
2023/06/12 11:55:05;;;;;;;7.00;4.90;;;23.20;62.00;;;;;;5026827;28;20735;-63
2023/06/12 11:57:31;;;;;;;6.70;4.97;;;23.20;63.30;;;;;;5042444;28;20052;-63
2023/06/12 11:59:58;;;;;;;8.75;5.20;;;23.50;62.20;;;;;;5035885;28;20052;-63
2023/06/12 12:02:29;;;;;;;10.18;5.05;;;23.60;61.40;;;;;;5036692;28;20041;-62
2023/06/12 12:04:57;;;;;;;9.10;5.15;;;23.40;58.50;;;;;;5036888;28;20083;-63
2023/06/12 12:07:24;;;;;;;6.55;4.60;;;23.30;59.80;;;;;;5039743;28;20106;-63
2023/06/12 12:10:03;;;;;;;7.65;5.32;;;23.40;60.00;;;;;;5034792;28;20675;-63
2023/06/12 12:12:49;;;;;;;7.72;5.25;;;23.60;60.50;;;;;;5039438;28;20602;-63
2023/06/12 12:15:16;;;;;;;7.75;4.90;;;23.60;64.00;;;;;;5040494;28;20041;-62
2023/06/12 12:17:43;;;;;;;12.18;5.65;;;23.70;59.40;;;;;;5043066;28;20060;-63
2023/06/12 12:20:28;;;;;;;10.82;5.03;;;23.90;59.60;;;;;;5039421;28;20120;-61
2023/06/12 12:22:57;;;;;;;5.90;4.78;;;24.20;61.00;;;;;;5045818;28;20045;-63
2023/06/12 12:25:27;;;;;;;8.10;5.25;;;24.30;57.90;;;;;;5043409;28;20049;-62
2023/06/12 12:27:54;;;;;;;13.63;5.25;;;24.10;59.10;;;;;;5045003;28;20091;-62
2023/06/12 12:30:21;;;;;;;10.35;5.00;;;24.00;63.40;;;;;;5041777;28;20069;-63
2023/06/12 12:32:55;;;;;;;5.88;4.75;;;24.10;60.00;;;;;;5030648;28;20201;-62
2023/06/12 12:35:22;;;;;;;10.57;5.32;;;24.10;59.00;;;;;;5038876;28;20226;-64
2023/06/12 12:37:50;;;;;;;12.00;5.25;;;24.30;59.30;;;;;;5047128;28;20428;-62
2023/06/12 12:40:15;;;;;;;14.80;4.90;;;24.20;56.60;;;;;;5034444;28;20586;-63
2023/06/12 12:42:43;;;;;;;5.22;4.10;;;24.20;57.70;;;;;;5040924;28;20045;-62
2023/06/12 12:45:16;;;;;;;7.80;4.68;;;23.90;57.60;;;;;;5043598;28;20044;-62
2023/06/12 12:47:49;;;;;;;5.82;4.50;;;23.90;58.40;;;;;;5043567;28;20036;-63
2023/06/12 12:50:18;;;;;;;9.93;4.82;;;23.90;59.40;;;;;;5032640;28;20573;-63
2023/06/12 12:52:45;;;;;;;9.60;4.97;;;24.20;57.50;;;;;;5040353;28;20048;-61
2023/06/12 12:55:11;;;;;;;8.45;4.10;;;24.30;58.20;;;;;;5036631;28;20490;-62
2023/06/12 12:57:39;;;;;;;7.03;4.07;;;24.30;59.10;;;;;;5044650;28;20040;-62
2023/06/12 13:00:09;;;;;;;6.70;4.03;;;24.50;57.80;;;;;;5040792;28;20060;-63